Milwaukee, Wisconsin
Traffic Map
Current Weather Conditions
Milwaukee, Wisconsin
Overcast Haze
Overcast
43°
Feels Like: 39°
Wind Chill: 39° Ceiling: 300
Heat Index: 43° Visibility: 1.5mi
Dew Point: 42° Wind: 6mph
Humidity: 97% Direction: 130° (SE)
Pressure: 29.82in Gusts: 0mph
Raw Report DataKMKE 201652Z 13005KT 1 1/2SM BR OVC003 06/06 A2982 RMK AO2 SFC VIS 5 SLP103 T00610056
Traffic Incident Summary
Active as of:
Severity:
Category:
InformationThere was an issue retrieving the traffic information for this location. Please try a different location or try again shortly.
Advertisements